Time;durP1;ratioP1;P1;durP2;ratioP2;P2;SDS_P1;SDS_P2;PMS_P1;PMS_P2;Temp;Humidity;BMP_temperature;BMP_pressure;BME280_temperature;BME280_humidity;BME280_pressure;Samples;Min_cycle;Max_cycle;Signal;HPM_P1;HPM_P2
2021/03/03 00:05:09;;;;;;;4.30;3.30;;;;;;;;;;4967658;28;20076;-54
2021/03/03 00:07:35;;;;;;;4.80;3.35;;;;;;;;;;4220567;33;20619;-55
2021/03/03 00:10:03;;;;;;;3.58;3.20;;;;;;;;;;4218810;33;20212;-56
2021/03/03 00:12:29;;;;;;;4.93;3.15;;;;;;;;;;4243538;33;20592;-56
2021/03/03 00:14:55;;;;;;;3.25;2.95;;;;;;;;;;4241320;33;20215;-56
2021/03/03 00:17:21;;;;;;;3.42;3.12;;;;;;;;;;4234548;33;20113;-56
2021/03/03 00:19:46;;;;;;;3.50;2.90;;;;;;;;;;4234367;33;20117;-56
2021/03/03 00:22:12;;;;;;;4.22;3.10;;;;;;;;;;4234607;33;20101;-57
2021/03/03 00:24:38;;;;;;;4.12;2.80;;;;;;;;;;4248188;33;20123;-57
2021/03/03 00:27:04;;;;;;;4.50;3.25;;;;;;;;;;4248374;33;20453;-56
2021/03/03 00:29:30;;;;;;;4.85;3.58;;;;;;;;;;4248618;33;20196;-57
2021/03/03 00:31:56;;;;;;;4.62;3.40;;;;;;;;;;4248168;33;20146;-57
2021/03/03 00:34:22;;;;;;;4.85;3.55;;;;;;;;;;4248353;33;20101;-57
2021/03/03 00:36:48;;;;;;;4.35;3.58;;;;;;;;;;4248117;33;20170;-56
2021/03/03 00:39:14;;;;;;;4.62;3.70;;;;;;;;;;4248328;33;20220;-57
2021/03/03 00:41:39;;;;;;;4.75;3.53;;;;;;;;;;4234282;33;20181;-57
2021/03/03 00:44:05;;;;;;;4.03;3.22;;;;;;;;;;4234100;33;20203;-57
2021/03/03 00:46:31;;;;;;;4.93;3.67;;;;;;;;;;4234155;33;20539;-57
2021/03/03 00:48:57;;;;;;;4.40;3.50;;;;;;;;;;4234149;33;20131;-57
2021/03/03 00:51:23;;;;;;;6.47;4.50;;;;;;;;;;4233908;33;20153;-57
2021/03/03 00:53:49;;;;;;;4.93;4.18;;;;;;;;;;4234038;33;20096;-57
2021/03/03 00:56:14;;;;;;;6.25;4.68;;;;;;;;;;4233885;33;20112;-57
2021/03/03 00:58:40;;;;;;;6.57;4.30;;;;;;;;;;4234300;33;20129;-58
2021/03/03 01:01:06;;;;;;;6.10;4.10;;;;;;;;;;4234053;33;20219;-57
2021/03/03 01:03:32;;;;;;;7.25;4.12;;;;;;;;;;4233999;33;20124;-57
2021/03/03 01:05:58;;;;;;;6.55;4.20;;;;;;;;;;4233803;33;20869;-58
2021/03/03 01:08:24;;;;;;;5.07;3.72;;;;;;;;;;4233956;33;20185;-58
2021/03/03 01:10:50;;;;;;;4.65;3.65;;;;;;;;;;4233810;33;20101;-57
2021/03/03 01:13:16;;;;;;;6.30;3.70;;;;;;;;;;4233894;33;20264;-57
2021/03/03 01:15:42;;;;;;;5.50;3.10;;;;;;;;;;4233609;33;20220;-58
2021/03/03 01:18:08;;;;;;;4.65;3.53;;;;;;;;;;4233763;33;20116;-58
2021/03/03 01:20:33;;;;;;;4.12;3.00;;;;;;;;;;4233631;33;20132;-56
2021/03/03 01:22:59;;;;;;;3.92;2.80;;;;;;;;;;4233373;33;20113;-57
2021/03/03 01:25:26;;;;;;;4.62;3.00;;;;;;;;;;4233864;33;20097;-58
2021/03/03 01:27:51;;;;;;;4.07;3.20;;;;;;;;;;4233959;33;20101;-57
2021/03/03 01:30:18;;;;;;;3.97;3.10;;;;;;;;;;4233622;33;20132;-57
2021/03/03 01:32:43;;;;;;;4.12;3.00;;;;;;;;;;4233779;33;20504;-57
2021/03/03 01:35:10;;;;;;;3.60;3.03;;;;;;;;;;4233524;33;20184;-58
2021/03/03 01:37:36;;;;;;;5.72;3.12;;;;;;;;;;4233646;33;20100;-58
2021/03/03 01:40:03;;;;;;;3.42;3.00;;;;;;;;;;4234275;33;20216;-58
2021/03/03 01:42:29;;;;;;;4.20;2.90;;;;;;;;;;4247637;33;20120;-58
2021/03/03 01:44:55;;;;;;;6.15;3.00;;;;;;;;;;4247577;33;20136;-58
2021/03/03 01:47:21;;;;;;;4.87;3.65;;;;;;;;;;4247906;33;20101;-58
2021/03/03 01:49:47;;;;;;;3.87;2.90;;;;;;;;;;4247693;33;20195;-58
2021/03/03 01:52:13;;;;;;;4.55;3.00;;;;;;;;;;4247412;33;20209;-58
2021/03/03 01:54:39;;;;;;;3.30;2.85;;;;;;;;;;4223240;33;20209;-57
2021/03/03 01:57:05;;;;;;;3.72;3.22;;;;;;;;;;4247592;33;20581;-57
2021/03/03 01:59:31;;;;;;;3.65;3.28;;;;;;;;;;4247847;33;20094;-58
2021/03/03 02:01:57;;;;;;;7.12;4.15;;;;;;;;;;4247724;33;20128;-58
2021/03/03 02:04:22;;;;;;;5.25;4.62;;;;;;;;;;4247545;33;20528;-57
2021/03/03 02:07:10;;;;;;;6.57;4.43;;;;;;;;;;4231289;33;20128;-58
2021/03/03 02:09:57;;;;;;;5.68;3.92;;;;;;;;;;4233433;33;20108;-57
2021/03/03 02:12:36;;;;;;;4.22;3.83;;;;;;;;;;4233295;33;20120;-57
2021/03/03 02:15:03;;;;;;;5.72;4.10;;;;;;;;;;4220119;33;20442;-57
2021/03/03 02:17:30;;;;;;;4.75;3.40;;;;;;;;;;4220276;33;20208;-61
2021/03/03 02:20:00;;;;;;;3.92;3.53;;;;;;;;;;4220212;33;20136;-57
2021/03/03 02:22:54;;;;;;;5.65;3.35;;;;;;;;;;4220805;33;20124;-56
2021/03/03 02:25:27;;;;;;;3.67;3.12;;;;;;;;;;4233162;33;20236;-58
2021/03/03 02:27:54;;;;;;;4.97;3.10;;;;;;;;;;4220523;33;20089;-57
2021/03/03 02:30:20;;;;;;;3.78;2.83;;;;;;;;;;4233097;33;20093;-56
2021/03/03 02:32:46;;;;;;;4.75;3.00;;;;;;;;;;4220421;33;20109;-57
2021/03/03 02:35:12;;;;;;;4.35;2.92;;;;;;;;;;4219073;33;20105;-55
2021/03/03 02:37:38;;;;;;;5.35;3.00;;;;;;;;;;4220058;33;20098;-57
2021/03/03 02:40:06;;;;;;;4.45;2.42;;;;;;;;;;4219925;33;20109;-57
2021/03/03 02:42:34;;;;;;;4.43;3.00;;;;;;;;;;4220121;33;20105;-56
2021/03/03 02:45:00;;;;;;;4.60;2.65;;;;;;;;;;4232935;33;20116;-57
2021/03/03 02:47:26;;;;;;;3.42;3.05;;;;;;;;;;4233091;33;20604;-56
2021/03/03 02:49:52;;;;;;;4.53;2.90;;;;;;;;;;4208638;33;20170;-56
2021/03/03 02:54:31;;;;;;;3.05;2.55;;;;;;;;;;3857915;37;20623;-57
2021/03/03 02:56:57;;;;;;;3.75;2.75;;;;;;;;;;4420054;32;20111;-54
2021/03/03 02:59:23;;;;;;;5.70;3.10;;;;;;;;;;4420336;32;20097;-56
2021/03/03 03:01:49;;;;;;;4.82;3.25;;;;;;;;;;4419990;32;20107;-57
2021/03/03 03:04:15;;;;;;;4.25;2.87;;;;;;;;;;4418689;32;20368;-57
2021/03/03 03:06:41;;;;;;;3.97;2.80;;;;;;;;;;4418468;32;20128;-57
2021/03/03 03:09:09;;;;;;;3.97;2.90;;;;;;;;;;4418658;32;20207;-60
2021/03/03 03:11:36;;;;;;;4.15;2.78;;;;;;;;;;4418488;32;20200;-57
2021/03/03 03:14:06;;;;;;;6.55;3.00;;;;;;;;;;4406027;32;20097;-52
2021/03/03 03:16:32;;;;;;;4.68;3.12;;;;;;;;;;4420135;32;20097;-58
2021/03/03 03:18:58;;;;;;;4.00;3.12;;;;;;;;;;4419983;32;20103;-53
2021/03/03 03:21:25;;;;;;;6.18;2.90;;;;;;;;;;4418439;32;20085;-51
2021/03/03 03:23:51;;;;;;;4.65;2.55;;;;;;;;;;4420055;32;20097;-51
2021/03/03 03:26:16;;;;;;;4.85;3.03;;;;;;;;;;4405951;32;20447;-54
2021/03/03 03:28:42;;;;;;;4.85;3.20;;;;;;;;;;4417030;32;20121;-54
2021/03/03 03:31:09;;;;;;;7.93;3.60;;;;;;;;;;4417597;32;20128;-54
2021/03/03 03:33:35;;;;;;;6.78;3.00;;;;;;;;;;4419850;32;20121;-56
2021/03/03 03:36:02;;;;;;;5.00;3.47;;;;;;;;;;4418173;32;20123;-54
2021/03/03 03:38:29;;;;;;;5.80;3.30;;;;;;;;;;4419961;32;20096;-56
2021/03/03 03:40:55;;;;;;;6.05;3.45;;;;;;;;;;4418431;32;20136;-55
2021/03/03 03:43:21;;;;;;;6.30;3.40;;;;;;;;;;4405632;32;20115;-54
2021/03/03 03:45:48;;;;;;;5.93;3.30;;;;;;;;;;4418490;32;20112;-56
2021/03/03 03:48:15;;;;;;;6.53;3.60;;;;;;;;;;4418422;32;20097;-54
2021/03/03 03:50:41;;;;;;;9.00;4.62;;;;;;;;;;4418127;32;20535;-54
2021/03/03 03:53:07;;;;;;;7.20;3.37;;;;;;;;;;4405358;32;20190;-53
2021/03/03 03:55:34;;;;;;;5.15;3.12;;;;;;;;;;4405398;32;20108;-53
2021/03/03 03:58:00;;;;;;;8.48;4.30;;;;;;;;;;4419723;32;20625;-55
2021/03/03 04:00:27;;;;;;;9.98;5.75;;;;;;;;;;4419478;32;20117;-54
2021/03/03 04:02:53;;;;;;;9.13;6.43;;;;;;;;;;4419510;32;20604;-54
2021/03/03 04:05:19;;;;;;;11.45;5.95;;;;;;;;;;4411753;32;20156;-54
2021/03/03 04:07:45;;;;;;;9.88;6.80;;;;;;;;;;4409199;32;20136;-56
2021/03/03 04:10:15;;;;;;;13.75;7.53;;;;;;;;;;4409284;32;20115;-54
2021/03/03 04:12:41;;;;;;;14.38;7.43;;;;;;;;;;4409351;32;20124;-55
2021/03/03 04:15:08;;;;;;;16.27;8.73;;;;;;;;;;4409160;32;20548;-56
2021/03/03 04:17:35;;;;;;;14.43;7.95;;;;;;;;;;4409231;32;20109;-53
2021/03/03 04:20:00;;;;;;;15.98;8.95;;;;;;;;;;4409152;32;20111;-54
2021/03/03 04:22:26;;;;;;;19.87;8.90;;;;;;;;;;4409250;32;20519;-53
2021/03/03 04:24:52;;;;;;;19.30;10.10;;;;;;;;;;4409348;32;20449;-54
2021/03/03 04:27:18;;;;;;;17.15;10.15;;;;;;;;;;4393839;32;20188;-53
2021/03/03 04:29:44;;;;;;;19.33;9.57;;;;;;;;;;4393993;32;20118;-55
2021/03/03 04:32:10;;;;;;;16.10;8.60;;;;;;;;;;4393514;32;20129;-54
2021/03/03 04:34:36;;;;;;;15.07;7.47;;;;;;;;;;4393738;32;20176;-54
2021/03/03 04:37:02;;;;;;;15.45;7.87;;;;;;;;;;4393721;32;20102;-55
2021/03/03 04:39:28;;;;;;;13.70;6.03;;;;;;;;;;4393802;32;20106;-54
2021/03/03 04:41:54;;;;;;;10.80;6.78;;;;;;;;;;4393939;32;20187;-53
2021/03/03 04:44:20;;;;;;;11.27;5.90;;;;;;;;;;4394175;32;20120;-54
2021/03/03 04:46:46;;;;;;;9.63;5.00;;;;;;;;;;4393784;32;20117;-53
2021/03/03 04:49:12;;;;;;;11.27;5.30;;;;;;;;;;4394059;32;20121;-53
2021/03/03 04:51:38;;;;;;;10.80;5.28;;;;;;;;;;4394003;32;20120;-55
2021/03/03 04:54:04;;;;;;;9.07;4.80;;;;;;;;;;4393886;32;20164;-55
2021/03/03 04:56:29;;;;;;;10.32;5.00;;;;;;;;;;4393884;32;20120;-54
2021/03/03 04:58:55;;;;;;;15.75;7.82;;;;;;;;;;4393838;32;20343;-51
2021/03/03 05:01:21;;;;;;;16.27;8.77;;;;;;;;;;4393643;32;20117;-52
2021/03/03 05:03:47;;;;;;;20.50;9.25;;;;;;;;;;4393555;32;20209;-53
2021/03/03 05:06:13;;;;;;;16.30;8.80;;;;;;;;;;4393556;32;20117;-53
2021/03/03 05:08:39;;;;;;;17.23;7.60;;;;;;;;;;4393911;32;20125;-56
2021/03/03 05:11:05;;;;;;;20.25;9.45;;;;;;;;;;4393519;32;20133;-55
2021/03/03 05:13:31;;;;;;;22.50;10.05;;;;;;;;;;4393290;32;20480;-54
2021/03/03 05:15:58;;;;;;;21.52;10.98;;;;;;;;;;4392622;32;20508;-53
2021/03/03 05:18:24;;;;;;;18.33;9.95;;;;;;;;;;4393466;32;20535;-54
2021/03/03 05:20:50;;;;;;;18.15;9.77;;;;;;;;;;4393338;32;20520;-56
2021/03/03 05:23:25;;;;;;;17.15;8.98;;;;;;;;;;4393311;32;20109;-54
2021/03/03 05:25:51;;;;;;;22.35;11.52;;;;;;;;;;4393500;32;20149;-54
2021/03/03 05:28:17;;;;;;;21.25;10.88;;;;;;;;;;4393343;32;20494;-55
2021/03/03 05:30:43;;;;;;;29.02;13.75;;;;;;;;;;4393599;32;20213;-54
2021/03/03 05:33:09;;;;;;;14.18;8.13;;;;;;;;;;4393210;32;20148;-54
2021/03/03 05:35:35;;;;;;;16.73;9.40;;;;;;;;;;4393265;32;20153;-56
2021/03/03 05:38:01;;;;;;;10.40;6.40;;;;;;;;;;4393455;32;20535;-53
2021/03/03 05:40:27;;;;;;;8.25;4.60;;;;;;;;;;4393220;32;20121;-53
2021/03/03 05:42:53;;;;;;;5.43;4.35;;;;;;;;;;4393232;32;20124;-53
2021/03/03 05:45:19;;;;;;;7.25;4.82;;;;;;;;;;4392055;32;20102;-53
2021/03/03 05:47:46;;;;;;;5.85;4.15;;;;;;;;;;4391853;32;20125;-55
2021/03/03 05:50:13;;;;;;;5.18;4.10;;;;;;;;;;4391737;32;20127;-53
2021/03/03 05:52:39;;;;;;;6.53;4.15;;;;;;;;;;4379212;32;20105;-54
2021/03/03 05:55:05;;;;;;;5.62;3.67;;;;;;;;;;4391684;32;20271;-55
2021/03/03 05:57:32;;;;;;;4.60;3.45;;;;;;;;;;4393603;32;20119;-55
2021/03/03 06:00:02;;;;;;;4.87;3.50;;;;;;;;;;4393043;32;20479;-54
2021/03/03 06:02:28;;;;;;;7.03;4.32;;;;;;;;;;4392987;32;20124;-55
2021/03/03 06:04:54;;;;;;;5.50;3.85;;;;;;;;;;4393106;32;20116;-53
2021/03/03 06:07:20;;;;;;;6.05;3.70;;;;;;;;;;4392968;32;20137;-53
2021/03/03 06:09:46;;;;;;;7.12;4.07;;;;;;;;;;4392861;32;20133;-55
2021/03/03 06:12:12;;;;;;;5.75;4.07;;;;;;;;;;4391175;32;20088;-53
2021/03/03 06:14:39;;;;;;;5.93;4.25;;;;;;;;;;4393086;32;20173;-53
2021/03/03 06:17:06;;;;;;;7.28;4.35;;;;;;;;;;4392707;32;20125;-54
2021/03/03 06:19:32;;;;;;;5.40;3.95;;;;;;;;;;4392805;32;20086;-52
2021/03/03 06:22:20;;;;;;;7.10;4.22;;;;;;;;;;4392684;32;20117;-53
2021/03/03 06:24:46;;;;;;;7.72;4.80;;;;;;;;;;4392782;32;20131;-54
2021/03/03 06:27:12;;;;;;;6.28;4.22;;;;;;;;;;4392227;32;20534;-56
2021/03/03 06:29:38;;;;;;;5.30;4.15;;;;;;;;;;4392850;32;20105;-56
2021/03/03 06:32:05;;;;;;;6.25;4.18;;;;;;;;;;4392436;32;20111;-56
2021/03/03 06:34:31;;;;;;;7.20;3.80;;;;;;;;;;4392597;32;20139;-54
2021/03/03 06:37:03;;;;;;;5.10;4.10;;;;;;;;;;4392372;32;20520;-55
2021/03/03 06:39:34;;;;;;;8.82;4.80;;;;;;;;;;4392605;32;20532;-56
2021/03/03 06:42:11;;;;;;;5.57;3.90;;;;;;;;;;4390926;32;20115;-57
2021/03/03 06:44:56;;;;;;;7.82;4.75;;;;;;;;;;4391278;32;20464;-53
2021/03/03 06:47:22;;;;;;;6.63;4.30;;;;;;;;;;4392444;32;20429;-54
2021/03/03 06:49:49;;;;;;;7.10;3.70;;;;;;;;;;4392506;32;20177;-52
2021/03/03 06:52:15;;;;;;;5.35;4.18;;;;;;;;;;4392115;32;20616;-57
2021/03/03 06:54:41;;;;;;;7.55;4.40;;;;;;;;;;4392465;32;20117;-57
2021/03/03 06:57:10;;;;;;;6.75;4.47;;;;;;;;;;4392231;32;20128;-56
2021/03/03 06:59:36;;;;;;;8.05;4.30;;;;;;;;;;4392435;32;20136;-56
2021/03/03 07:02:09;;;;;;;7.00;4.68;;;;;;;;;;4392038;32;20108;-55
2021/03/03 07:04:36;;;;;;;8.73;4.20;;;;;;;;;;4392597;32;20097;-55
2021/03/03 07:07:03;;;;;;;6.62;3.75;;;;;;;;;;4392113;32;20183;-56
2021/03/03 07:09:40;;;;;;;6.22;4.35;;;;;;;;;;4392145;32;20114;-57
2021/03/03 07:12:19;;;;;;;8.82;4.57;;;;;;;;;;4390577;32;20082;-57
2021/03/03 07:14:54;;;;;;;8.73;4.50;;;;;;;;;;4392145;32;20475;-57
2021/03/03 07:17:23;;;;;;;5.87;4.00;;;;;;;;;;4392048;32;20104;-57
2021/03/03 07:19:53;;;;;;;7.37;4.62;;;;;;;;;;4392006;32;20141;-57
2021/03/03 07:22:21;;;;;;;7.50;4.72;;;;;;;;;;4390480;32;20500;-55
2021/03/03 07:24:47;;;;;;;7.40;4.60;;;;;;;;;;4392058;32;20102;-55
2021/03/03 07:27:17;;;;;;;6.68;4.32;;;;;;;;;;4390518;32;20171;-58
2021/03/03 07:29:42;;;;;;;6.60;4.57;;;;;;;;;;4390625;32;20113;-55
2021/03/03 07:32:08;;;;;;;6.10;4.37;;;;;;;;;;4377828;32;20137;-54
2021/03/03 07:34:34;;;;;;;6.32;4.47;;;;;;;;;;4390669;32;20109;-56
2021/03/03 07:37:00;;;;;;;7.57;3.75;;;;;;;;;;4390622;32;20132;-54
2021/03/03 07:39:26;;;;;;;4.22;3.10;;;;;;;;;;4390916;32;20225;-57
2021/03/03 07:41:52;;;;;;;6.80;3.70;;;;;;;;;;4380538;32;20582;-56
2021/03/03 07:44:19;;;;;;;5.75;3.90;;;;;;;;;;4394169;32;20112;-55
2021/03/03 07:46:48;;;;;;;6.35;4.03;;;;;;;;;;4394185;32;20205;-56
2021/03/03 07:49:18;;;;;;;5.10;3.50;;;;;;;;;;4393090;32;20113;-55
2021/03/03 07:51:43;;;;;;;5.12;3.33;;;;;;;;;;4380667;32;20113;-55
2021/03/03 07:54:11;;;;;;;6.03;3.90;;;;;;;;;;4393864;32;20527;-53
2021/03/03 07:56:37;;;;;;;4.47;3.33;;;;;;;;;;4394115;32;20439;-56
2021/03/03 07:59:05;;;;;;;6.37;3.53;;;;;;;;;;4392647;32;20117;-56
2021/03/03 08:01:31;;;;;;;5.93;3.75;;;;;;;;;;4394000;32;20113;-54
2021/03/03 08:03:57;;;;;;;5.35;3.70;;;;;;;;;;4380333;32;20520;-56
2021/03/03 08:06:29;;;;;;;5.03;2.92;;;;;;;;;;4393945;32;20089;-54
2021/03/03 08:09:07;;;;;;;5.47;2.95;;;;;;;;;;4393869;32;20120;-56
2021/03/03 08:11:33;;;;;;;3.80;3.00;;;;;;;;;;4393861;32;20115;-56
2021/03/03 08:13:59;;;;;;;4.28;3.25;;;;;;;;;;4393923;32;20106;-56
2021/03/03 08:16:25;;;;;;;4.87;3.15;;;;;;;;;;4393923;32;20274;-56
2021/03/03 08:18:56;;;;;;;4.12;2.80;;;;;;;;;;4392391;32;20145;-53
2021/03/03 08:21:25;;;;;;;4.87;2.60;;;;;;;;;;4394006;32;20194;-57
2021/03/03 08:24:09;;;;;;;5.03;2.62;;;;;;;;;;4393953;32;20322;-57
2021/03/03 08:26:35;;;;;;;4.87;2.87;;;;;;;;;;4392624;32;20193;-59
2021/03/03 08:29:20;;;;;;;3.45;2.87;;;;;;;;;;4393745;32;20441;-55
2021/03/03 08:31:46;;;;;;;4.80;2.70;;;;;;;;;;4393710;32;20505;-58
2021/03/03 08:34:13;;;;;;;3.20;2.40;;;;;;;;;;4393509;32;20120;-58
2021/03/03 08:36:40;;;;;;;6.22;2.90;;;;;;;;;;4393588;32;20111;-57
2021/03/03 08:39:06;;;;;;;3.40;2.47;;;;;;;;;;4393515;32;20202;-57
2021/03/03 08:41:33;;;;;;;3.28;2.83;;;;;;;;;;4393644;32;20129;-58
2021/03/03 08:44:05;;;;;;;2.83;2.20;;;;;;;;;;4393496;32;20129;-56
2021/03/03 08:46:33;;;;;;;4.62;2.50;;;;;;;;;;4393819;32;20104;-54
2021/03/03 08:49:00;;;;;;;4.10;2.87;;;;;;;;;;4393906;32;20084;-57
2021/03/03 08:51:29;;;;;;;4.37;2.60;;;;;;;;;;4393412;32;20160;-51
2021/03/03 08:53:59;;;;;;;4.62;2.35;;;;;;;;;;4393429;32;20137;-54
2021/03/03 08:56:52;;;;;;;4.30;2.80;;;;;;;;;;4393441;32;20101;-57
2021/03/03 08:59:36;;;;;;;4.15;2.40;;;;;;;;;;4392311;32;20121;-55
2021/03/03 09:02:07;;;;;;;5.43;2.72;;;;;;;;;;4393512;32;20456;-57
2021/03/03 09:04:43;;;;;;;4.03;2.20;;;;;;;;;;4388793;32;20101;-56
2021/03/03 09:07:23;;;;;;;3.20;2.30;;;;;;;;;;4389137;32;20120;-56
2021/03/03 09:09:56;;;;;;;3.92;2.22;;;;;;;;;;4378901;32;20113;-58
2021/03/03 09:12:25;;;;;;;2.92;2.10;;;;;;;;;;4381569;32;20112;-57
2021/03/03 09:14:53;;;;;;;2.85;2.00;;;;;;;;;;4393289;32;20098;-57
2021/03/03 09:17:24;;;;;;;3.83;2.10;;;;;;;;;;4393239;32;20125;-54
2021/03/03 09:19:51;;;;;;;2.15;1.73;;;;;;;;;;4393357;32;20101;-58
2021/03/03 09:22:21;;;;;;;2.95;2.35;;;;;;;;;;4381224;32;20106;-59
2021/03/03 09:24:48;;;;;;;3.10;2.05;;;;;;;;;;4378254;32;20088;-59
2021/03/03 09:27:14;;;;;;;3.83;2.40;;;;;;;;;;4378109;32;20116;-57
2021/03/03 09:29:42;;;;;;;3.55;2.22;;;;;;;;;;4378175;32;20210;-58
2021/03/03 09:32:22;;;;;;;2.72;2.00;;;;;;;;;;4378038;32;20117;-54
2021/03/03 09:34:54;;;;;;;4.50;2.28;;;;;;;;;;4378148;32;20117;-57
2021/03/03 09:37:20;;;;;;;3.72;2.35;;;;;;;;;;4377993;32;20141;-57
2021/03/03 09:39:58;;;;;;;3.25;2.03;;;;;;;;;;4392829;32;20101;-57
2021/03/03 09:42:25;;;;;;;4.05;1.92;;;;;;;;;;4393289;32;20128;-55
2021/03/03 09:44:57;;;;;;;2.78;2.08;;;;;;;;;;4393086;32;20097;-56
2021/03/03 09:47:34;;;;;;;2.80;2.20;;;;;;;;;;4393264;32;20098;-57
2021/03/03 09:50:02;;;;;;;3.65;2.50;;;;;;;;;;4392909;32;20625;-56
2021/03/03 09:52:36;;;;;;;3.50;2.50;;;;;;;;;;4392693;32;20452;-53
2021/03/03 09:55:02;;;;;;;2.42;2.10;;;;;;;;;;4393156;32;20121;-54
2021/03/03 09:57:28;;;;;;;2.50;2.10;;;;;;;;;;4393090;32;20244;-54
2021/03/03 09:59:56;;;;;;;4.45;2.55;;;;;;;;;;4393115;32;20133;-54
2021/03/03 10:02:26;;;;;;;4.20;2.97;;;;;;;;;;4391199;32;20148;-59
2021/03/03 10:04:53;;;;;;;4.78;2.72;;;;;;;;;;4391581;32;20093;-58
2021/03/03 10:07:23;;;;;;;5.12;2.40;;;;;;;;;;4391455;32;20530;-59
2021/03/03 10:10:02;;;;;;;3.85;2.50;;;;;;;;;;4392926;32;20093;-60
2021/03/03 10:12:35;;;;;;;4.70;3.05;;;;;;;;;;4391497;32;20463;-58
2021/03/03 10:15:04;;;;;;;3.97;2.15;;;;;;;;;;4392840;32;20089;-58
2021/03/03 10:17:38;;;;;;;2.97;2.35;;;;;;;;;;4393167;32;20097;-58
2021/03/03 10:20:10;;;;;;;3.97;2.42;;;;;;;;;;4393119;32;20740;-57
2021/03/03 10:22:37;;;;;;;3.78;2.40;;;;;;;;;;4393051;32;20112;-55
2021/03/03 10:25:07;;;;;;;2.80;2.10;;;;;;;;;;4378760;32;20102;-57
2021/03/03 10:27:39;;;;;;;3.35;2.05;;;;;;;;;;4393079;32;20086;-55
2021/03/03 10:30:29;;;;;;;3.67;2.10;;;;;;;;;;4392619;32;20125;-57
2021/03/03 10:32:55;;;;;;;3.75;2.28;;;;;;;;;;4386647;32;20097;-55
2021/03/03 10:35:25;;;;;;;2.75;1.95;;;;;;;;;;4392712;32;20433;-56
2021/03/03 10:37:51;;;;;;;4.57;2.08;;;;;;;;;;4392745;32;20109;-57
2021/03/03 10:40:18;;;;;;;4.12;2.05;;;;;;;;;;4379392;32;20105;-53
2021/03/03 10:42:44;;;;;;;3.20;2.20;;;;;;;;;;4377818;32;20113;-57
2021/03/03 10:45:33;;;;;;;3.90;1.95;;;;;;;;;;4377462;32;20208;-58
2021/03/03 10:48:03;;;;;;;4.15;2.15;;;;;;;;;;4376128;32;20098;-57
2021/03/03 10:50:30;;;;;;;3.42;1.92;;;;;;;;;;4377410;32;20546;-57
2021/03/03 10:53:01;;;;;;;3.22;2.10;;;;;;;;;;4377262;32;20109;-50
2021/03/03 10:55:41;;;;;;;6.20;2.60;;;;;;;;;;4377480;32;20112;-54
2021/03/03 10:58:14;;;;;;;6.75;2.67;;;;;;;;;;4377649;32;20464;-57
2021/03/03 11:01:03;;;;;;;4.12;2.90;;;;;;;;;;4377259;32;20082;-57
2021/03/03 11:03:30;;;;;;;3.33;2.15;;;;;;;;;;4377385;32;20117;-52
2021/03/03 11:05:57;;;;;;;2.25;1.70;;;;;;;;;;4386513;32;20608;-51
2021/03/03 11:08:23;;;;;;;5.25;2.60;;;;;;;;;;4392259;32;20108;-58
2021/03/03 11:10:49;;;;;;;5.18;1.80;;;;;;;;;;4392225;32;20089;-57
2021/03/03 11:13:15;;;;;;;5.70;2.65;;;;;;;;;;4392149;32;20132;-57
2021/03/03 11:15:42;;;;;;;6.93;2.37;;;;;;;;;;4394110;32;20447;-57
2021/03/03 11:18:08;;;;;;;7.35;1.95;;;;;;;;;;4394680;32;20104;-53
2021/03/03 11:20:35;;;;;;;3.87;2.00;;;;;;;;;;4394516;32;20144;-53
2021/03/03 11:23:01;;;;;;;4.87;2.40;;;;;;;;;;4394629;32;20116;-55
2021/03/03 11:25:27;;;;;;;5.15;2.28;;;;;;;;;;4405722;32;20124;-57
2021/03/03 11:27:53;;;;;;;3.75;2.05;;;;;;;;;;4394418;32;20113;-57
2021/03/03 11:30:19;;;;;;;4.00;2.25;;;;;;;;;;4394511;32;20232;-57
2021/03/03 11:32:45;;;;;;;4.53;2.37;;;;;;;;;;4394168;32;20101;-57
2021/03/03 11:35:11;;;;;;;4.22;2.33;;;;;;;;;;4394252;32;20125;-57
2021/03/03 11:37:37;;;;;;;3.70;1.80;;;;;;;;;;4394157;32;20201;-58
2021/03/03 11:40:04;;;;;;;3.45;2.05;;;;;;;;;;4394174;32;20496;-58
2021/03/03 11:42:30;;;;;;;5.07;1.85;;;;;;;;;;4394146;32;20106;-57
2021/03/03 11:44:55;;;;;;;3.25;1.65;;;;;;;;;;4394542;32;20267;-57
2021/03/03 11:47:21;;;;;;;2.45;1.70;;;;;;;;;;4394563;32;20192;-56
2021/03/03 11:49:47;;;;;;;2.00;1.65;;;;;;;;;;4394576;32;20124;-58
2021/03/03 11:52:13;;;;;;;2.60;1.62;;;;;;;;;;4394197;32;20159;-58
2021/03/03 11:54:39;;;;;;;4.47;1.80;;;;;;;;;;4394267;32;20112;-52
2021/03/03 11:57:05;;;;;;;2.58;1.80;;;;;;;;;;4394403;32;20196;-56
2021/03/03 11:59:31;;;;;;;2.35;1.70;;;;;;;;;;4394149;32;20683;-57
2021/03/03 12:01:58;;;;;;;2.50;1.80;;;;;;;;;;4394167;32;20109;-57
2021/03/03 12:04:24;;;;;;;3.05;1.85;;;;;;;;;;4394033;32;20097;-55
2021/03/03 12:06:50;;;;;;;2.50;1.65;;;;;;;;;;4394124;32;20195;-53
2021/03/03 12:09:16;;;;;;;1.70;1.40;;;;;;;;;;4393122;32;20567;-56
2021/03/03 12:11:42;;;;;;;1.60;1.27;;;;;;;;;;4379028;32;20121;-57
2021/03/03 12:14:08;;;;;;;2.28;1.70;;;;;;;;;;4379081;32;20568;-58
2021/03/03 12:16:34;;;;;;;6.45;1.58;;;;;;;;;;4378134;32;20121;-57
2021/03/03 12:19:01;;;;;;;2.30;1.80;;;;;;;;;;4379372;32;20525;-57
2021/03/03 12:21:26;;;;;;;3.12;2.10;;;;;;;;;;4386877;32;20102;-56
2021/03/03 12:23:52;;;;;;;2.25;1.52;;;;;;;;;;4394086;32;20831;-58
2021/03/03 12:26:18;;;;;;;2.47;1.55;;;;;;;;;;4388633;32;20170;-57
2021/03/03 12:28:44;;;;;;;4.95;1.70;;;;;;;;;;4378992;32;20120;-55
2021/03/03 12:31:12;;;;;;;3.05;1.98;;;;;;;;;;4378670;32;20111;-55
2021/03/03 12:33:40;;;;;;;2.87;2.15;;;;;;;;;;4393788;32;20129;-56
2021/03/03 12:36:07;;;;;;;2.53;1.60;;;;;;;;;;4393869;32;20109;-57
2021/03/03 12:38:33;;;;;;;1.90;1.60;;;;;;;;;;4392626;32;20109;-54
2021/03/03 12:40:59;;;;;;;2.42;1.45;;;;;;;;;;4394080;32;20542;-57
2021/03/03 12:43:25;;;;;;;2.00;1.80;;;;;;;;;;4384212;32;20106;-56
2021/03/03 12:45:51;;;;;;;3.58;2.17;;;;;;;;;;4378657;32;20117;-57
2021/03/03 12:48:17;;;;;;;3.58;2.12;;;;;;;;;;4377659;32;20144;-57
2021/03/03 12:50:43;;;;;;;3.22;2.08;;;;;;;;;;4378623;32;20292;-58
2021/03/03 12:53:09;;;;;;;3.42;2.37;;;;;;;;;;4382718;32;20133;-57
2021/03/03 12:55:35;;;;;;;5.07;2.30;;;;;;;;;;4393659;32;20125;-59
2021/03/03 12:58:00;;;;;;;4.68;2.15;;;;;;;;;;4391905;32;20236;-58
2021/03/03 13:00:26;;;;;;;5.78;2.12;;;;;;;;;;4393797;32;20113;-57
2021/03/03 13:02:52;;;;;;;5.12;1.80;;;;;;;;;;4393667;32;20120;-57
2021/03/03 13:05:18;;;;;;;2.95;2.12;;;;;;;;;;4393607;32;20550;-58
2021/03/03 13:07:44;;;;;;;8.57;2.10;;;;;;;;;;4393742;32;20117;-58
2021/03/03 13:10:11;;;;;;;5.50;2.22;;;;;;;;;;4393559;32;20113;-58
2021/03/03 13:12:36;;;;;;;5.72;2.28;;;;;;;;;;4393679;32;20445;-53
2021/03/03 13:15:04;;;;;;;5.18;2.10;;;;;;;;;;4393682;32;20233;-54
2021/03/03 13:17:30;;;;;;;6.30;2.40;;;;;;;;;;4393806;32;20190;-54
2021/03/03 13:19:56;;;;;;;7.82;2.37;;;;;;;;;;4393755;32;20628;-58
2021/03/03 13:22:22;;;;;;;11.00;2.70;;;;;;;;;;4393576;32;20105;-54
2021/03/03 13:24:48;;;;;;;4.78;2.20;;;;;;;;;;4393346;32;20182;-57
2021/03/03 13:27:14;;;;;;;8.18;3.58;;;;;;;;;;4393220;32;20082;-58
2021/03/03 13:29:40;;;;;;;9.32;3.58;;;;;;;;;;4393471;32;20483;-58
2021/03/03 13:32:10;;;;;;;6.55;3.08;;;;;;;;;;4393103;32;20096;-58
2021/03/03 13:34:39;;;;;;;10.00;3.53;;;;;;;;;;4393404;32;20453;-58
2021/03/03 13:37:06;;;;;;;4.90;3.08;;;;;;;;;;4392228;32;20109;-57
2021/03/03 13:39:31;;;;;;;5.60;3.28;;;;;;;;;;4393186;32;20105;-55
2021/03/03 13:41:57;;;;;;;9.10;3.25;;;;;;;;;;4393024;32;20098;-58
2021/03/03 13:44:23;;;;;;;5.97;3.20;;;;;;;;;;4393007;32;20105;-59
2021/03/03 13:46:49;;;;;;;4.62;2.92;;;;;;;;;;4391797;32;20133;-60
2021/03/03 13:49:15;;;;;;;6.32;2.25;;;;;;;;;;4393111;32;20097;-56
2021/03/03 13:51:41;;;;;;;7.18;3.00;;;;;;;;;;4393031;32;20233;-56
2021/03/03 13:54:07;;;;;;;6.85;2.62;;;;;;;;;;4392741;32;20121;-55
2021/03/03 13:56:33;;;;;;;7.37;3.35;;;;;;;;;;4392906;32;20201;-57
2021/03/03 13:58:59;;;;;;;4.97;2.95;;;;;;;;;;4393000;32;20152;-58
2021/03/03 14:01:25;;;;;;;6.25;2.47;;;;;;;;;;4393040;32;20096;-55
2021/03/03 14:03:51;;;;;;;3.75;2.28;;;;;;;;;;4392858;32;20118;-58
2021/03/03 14:06:17;;;;;;;6.53;2.80;;;;;;;;;;4392984;32;20104;-56
2021/03/03 14:08:42;;;;;;;4.85;2.58;;;;;;;;;;4392970;32;20180;-56
2021/03/03 14:11:08;;;;;;;5.57;2.67;;;;;;;;;;4392764;32;20631;-58
2021/03/03 14:13:34;;;;;;;6.00;3.10;;;;;;;;;;4392871;32;20579;-59
2021/03/03 14:16:00;;;;;;;3.17;2.15;;;;;;;;;;4393000;32;20194;-59
2021/03/03 14:18:26;;;;;;;3.12;2.00;;;;;;;;;;4392870;32;20121;-58
2021/03/03 14:20:53;;;;;;;2.05;1.60;;;;;;;;;;4392607;32;20215;-58
2021/03/03 14:23:18;;;;;;;3.30;1.83;;;;;;;;;;4392774;32;20577;-52
2021/03/03 14:25:44;;;;;;;3.65;2.15;;;;;;;;;;4392637;32;20224;-58
2021/03/03 14:28:10;;;;;;;3.15;1.98;;;;;;;;;;4392617;32;20123;-53
2021/03/03 14:30:36;;;;;;;2.95;2.05;;;;;;;;;;4392550;32;20201;-56
2021/03/03 14:33:03;;;;;;;2.03;1.75;;;;;;;;;;4392451;32;20094;-57
2021/03/03 14:35:29;;;;;;;4.32;2.45;;;;;;;;;;4392581;32;20176;-57
2021/03/03 14:37:55;;;;;;;2.75;2.10;;;;;;;;;;4392372;32;20186;-52
2021/03/03 14:40:21;;;;;;;4.05;2.30;;;;;;;;;;4392376;32;20101;-57
2021/03/03 14:42:47;;;;;;;4.62;2.40;;;;;;;;;;4392432;32;20177;-57
2021/03/03 14:45:13;;;;;;;2.60;1.98;;;;;;;;;;4392378;32;20135;-59
2021/03/03 14:47:39;;;;;;;3.08;2.03;;;;;;;;;;4392735;32;20198;-58
2021/03/03 14:50:06;;;;;;;4.68;2.20;;;;;;;;;;4392313;32;20133;-58